Zeynom — YM3998 — position and weather

sailwx.info

Track history (hours):
 
Tides and Currents Weather Stations Pressure Air Temp Water Temp Dewpoint Dewpoint Depression Visibility Wind Speed Wind Dir Waves Ship Positions

Zeynom

Last reported at 2017-Sep-14 01:46 UTC. Time now 2017-Dec-15 06:37 UTC.
Position N 36°46' E 031°23'.
Warning: this ship's position is months out of date.

Length 14 m.

Type: Passenger vessel. MMSI: 271043714.

Date/timePositionNaut miles runAvg speedWind from/ knotsBaromVisibWave heightAir tempDewpointWater temp
2017-Sep-14 01:46N 36°46' E 031°23'0 0.0
2017-Sep-14 00:28N 36°46' E 031°23'0 0.0
2017-Sep-13 23:46N 36°46' E 031°23'0 0.0
2017-Sep-12 04:55N 36°46' E 031°23'0 0.0
2017-Sep-12 04:13N 36°46' E 031°23'0 0.0
2017-Sep-12 03:58N 36°46' E 031°23'0 0.0
2017-Sep-12 03:28N 36°46' E 031°23'0 0.0
2017-Sep-12 02:55N 36°46' E 031°23'0 0.0
2017-Sep-12 02:28N 36°46' E 031°23'0 0.0
2017-Sep-12 01:58N 36°46' E 031°23'0 0.0
2017-Sep-12 01:28N 36°46' E 031°23'0 0.0
2017-Sep-11 23:16N 36°46' E 031°23'0 0.0
2017-Sep-11 22:58N 36°46' E 031°23'0 0.0
2017-Sep-11 19:16N 36°46' E 031°23'0 0.0
2017-Sep-11 18:55N 36°46' E 031°23'0 0.0
2017-Sep-11 15:58N 36°46' E 031°23'0 0.0
2017-Sep-11 15:25N 36°46' E 031°23'0 0.0
2017-Sep-11 14:49N 36°46' E 031°23'0 0.0
2017-Sep-11 13:34N 36°46' E 031°23'0 0.0
2017-Sep-11 13:25N 36°46' E 031°23'0 0.0
2017-Sep-11 12:58N 36°46' E 031°23'0 0.0
2017-Sep-11 12:28N 36°46' E 031°23'0 0.0
2017-Sep-11 11:55N 36°46' E 031°23'0 0.0
2017-Sep-11 11:28N 36°46' E 031°23'0 0.0
2017-Sep-11 10:58N 36°46' E 031°23'0 0.0
2017-Sep-11 10:25N 36°46' E 031°23'0 0.0
2017-Sep-11 09:58N 36°46' E 031°23'0 0.0
2017-Sep-11 09:22N 36°46' E 031°23'0 0.0
2017-Sep-11 08:58N 36°46' E 031°23'0 0.0
2017-Sep-11 08:28N 36°46' E 031°23'0 0.0
2017-Sep-11 07:55N 36°46' E 031°23'0 0.0
2017-Sep-11 07:28N 36°46' E 031°23'0 0.0
2017-Sep-11 06:58N 36°46' E 031°23'0 0.0
2017-Sep-11 06:28N 36°46' E 031°23'0 0.0
2017-Sep-11 05:58N 36°46' E 031°23'0 0.0
2017-Sep-11 05:25N 36°46' E 031°23'0 0.0
2017-Sep-11 04:58N 36°46' E 031°23'0 0.0
2017-Sep-11 04:22N 36°46' E 031°23'0 0.0
2017-Sep-11 03:52N 36°46' E 031°23'0 0.0
2017-Sep-11 03:28N 36°46' E 031°23'0 0.0
2017-Sep-11 01:28N 36°46' E 031°23'0 0.0
2017-Sep-11 00:58N 36°46' E 031°23'0 0.0
2017-Sep-11 00:28N 36°46' E 031°23'0 0.0
2017-Sep-10 23:58N 36°46' E 031°23'0 0.0
2017-Sep-10 23:28N 36°46' E 031°23'0 0.0
2017-Sep-10 22:40N 36°46' E 031°23'0 0.0
2017-Sep-10 22:28N 36°46' E 031°23'0 0.0
2017-Sep-10 21:58N 36°46' E 031°23'0 0.0
2017-Sep-10 21:28N 36°46' E 031°23'0 0.0
2017-Sep-10 20:58N 36°46' E 031°23'0 0.0
2017-Sep-10 20:28N 36°46' E 031°23'0 0.0
2017-Sep-10 19:58N 36°46' E 031°23'0 0.0
2017-Sep-10 19:28N 36°46' E 031°23'0 0.0
2017-Sep-10 17:49N 36°46' E 031°23'0 0.0
2017-Sep-10 17:28N 36°46' E 031°23'0 0.0
2017-Sep-10 16:58N 36°46' E 031°23'0 0.0
2017-Sep-10 16:28N 36°46' E 031°23'0 0.0
2017-Sep-10 15:58N 36°46' E 031°23'0 0.0
2017-Sep-10 15:28N 36°46' E 031°23'0 0.0
2017-Sep-10 14:52N 36°46' E 031°23'0 0.0
2017-Sep-10 13:50N 36°46' E 031°23'1 2.1
2017-Sep-10 13:26N 36°47' E 031°23'1 0.8
2017-Sep-10 12:34N 36°46' E 031°23'0 0.0
2017-Sep-10 12:28N 36°46' E 031°23'2 4.2
2017-Sep-10 12:00N 36°44' E 031°24'3 5.6
2017-Sep-10 11:30N 36°44' E 031°28'1 0.8
2017-Sep-10 09:37N 36°44' E 031°29'0 0.0
2017-Sep-10 09:25N 36°44' E 031°29'1 3.1
2017-Sep-10 09:00N 36°45' E 031°28'4 0.4
2017-Sep-09 22:18N 36°46' E 031°23'0 0.0
2017-Sep-09 21:57N 36°46' E 031°23'0 0.0
2017-Sep-09 21:30N 36°46' E 031°23'0 0.0
2017-Sep-09 21:00N 36°46' E 031°23'0 0.0
2017-Sep-09 19:54N 36°46' E 031°23'0 0.0
2017-Sep-09 18:47N 36°46' E 031°23'0 0.0
2017-Sep-09 18:29N 36°46' E 031°23'0 0.0
2017-Sep-09 17:56N 36°46' E 031°23'0 0.0
2017-Sep-09 17:20N 36°46' E 031°23'0 0.0
2017-Sep-09 16:59N 36°46' E 031°23'0 0.0
2017-Sep-09 16:29N 36°46' E 031°23'0 0.0
2017-Sep-09 13:50N 36°46' E 031°23'0 0.0
2017-Sep-09 13:20N 36°46' E 031°23'0 0.0
2017-Sep-09 12:44N 36°46' E 031°23'0 0.0
2017-Sep-09 12:26N 36°46' E 031°23'0 0.0
2017-Sep-09 11:56N 36°46' E 031°23'0 0.0
2017-Sep-09 11:26N 36°46' E 031°23'0 0.0
2017-Sep-09 10:56N 36°46' E 031°23'0 0.0
2017-Sep-09 10:26N 36°46' E 031°23'0 0.0
2017-Sep-09 09:59N 36°46' E 031°23'0 0.0
2017-Sep-09 09:26N 36°46' E 031°23'0 0.0
2017-Sep-09 08:56N 36°46' E 031°23'0 0.0
2017-Sep-08 14:50N 36°46' E 031°23'0 0.0
2017-Sep-08 14:29N 36°46' E 031°23'0 0.0
2017-Sep-08 13:59N 36°46' E 031°23'0 0.0
2017-Sep-08 13:26N 36°46' E 031°23'0 0.0
2017-Sep-08 12:50N 36°46' E 031°23'0 0.0
2017-Sep-08 12:29N 36°46' E 031°23'0 0.0
2017-Sep-08 11:56N 36°46' E 031°23'0 0.0
2017-Sep-08 11:26N 36°46' E 031°23'0 0.0
2017-Sep-08 10:59N 36°46' E 031°23'0 0.0
2017-Sep-08 10:20N 36°46' E 031°23'0 0.0
2017-Sep-08 09:50N 36°46' E 031°23'  
2017-Sep-05 11:51N 36°46' E 031°23'0 0.0
2017-Sep-05 11:21N 36°46' E 031°23'0 0.0
2017-Sep-05 10:57N 36°46' E 031°23'0 0.0
2017-Sep-05 03:33N 36°46' E 031°23'0 0.0
2017-Sep-05 03:18N 36°46' E 031°23'0 0.0
2017-Sep-05 02:51N 36°46' E 031°23'0 0.0
2017-Sep-05 02:30N 36°46' E 031°23'0 0.0
2017-Sep-05 01:57N 36°46' E 031°23'0 0.0
2017-Sep-05 01:27N 36°46' E 031°23'0 0.0
2017-Sep-05 00:54N 36°46' E 031°23'0 0.0
2017-Sep-04 23:45N 36°46' E 031°23'0 0.0
2017-Sep-04 23:27N 36°46' E 031°23'0 0.0
2017-Sep-04 22:03N 36°46' E 031°23'0 0.0
2017-Sep-04 22:00N 36°46' E 031°23'0 0.0
2017-Sep-04 21:27N 36°46' E 031°23'0 0.0
2017-Sep-04 20:42N 36°46' E 031°23'0 0.0
2017-Sep-04 20:12N 36°46' E 031°23'0 0.0
2017-Sep-04 18:06N 36°46' E 031°23'0 0.0
2017-Sep-04 18:00N 36°46' E 031°23'0 0.0
2017-Sep-04 17:27N 36°46' E 031°23'0 0.0
2017-Sep-04 16:54N 36°46' E 031°23'0 0.0
2017-Sep-04 16:30N 36°46' E 031°23'0 0.0
2017-Sep-04 15:12N 36°46' E 031°23'0 0.0
2017-Sep-04 15:00N 36°46' E 031°23'0 0.0
2017-Sep-04 14:27N 36°46' E 031°23'0 0.0
2017-Sep-04 13:57N 36°46' E 031°23'0 0.0
2017-Sep-04 13:30N 36°46' E 031°23'0 0.0
2017-Sep-04 13:00N 36°46' E 031°23'0 0.0
2017-Sep-04 12:30N 36°46' E 031°23'0 0.0
2017-Sep-04 11:57N 36°46' E 031°23'0 0.0
2017-Sep-04 11:30N 36°46' E 031°23'0 0.0
2017-Sep-04 11:00N 36°46' E 031°23'0 0.0
2017-Sep-04 10:31N 36°46' E 031°23'0 0.0
2017-Sep-04 09:57N 36°46' E 031°23'0 0.0
2017-Sep-04 08:34N 36°46' E 031°23'0 0.0
2017-Sep-04 08:28N 36°46' E 031°23'  
Track history (hours):
 
Tides and Currents Weather Stations Pressure Air Temp Water Temp Dewpoint Dewpoint Depression Visibility Wind Speed Wind Dir Waves Ship Positions

Zeynom

Last reported at 2017-Sep-14 01:46 UTC. Time now 2017-Dec-15 06:37 UTC.
Position N 36°46' E 031°23'.
Warning: this ship's position is months out of date.

Length 14 m.

Type: Passenger vessel. MMSI: 271043714.

Date/timePositionNaut miles runAvg speedWind from/ knotsBaromVisibWave heightAir tempDewpointWater temp
2017-Sep-14 01:46N 36°46' E 031°23'0 0.0
2017-Sep-14 00:28N 36°46' E 031°23'0 0.0
2017-Sep-13 23:46N 36°46' E 031°23'0 0.0
2017-Sep-12 04:55N 36°46' E 031°23'0 0.0
2017-Sep-12 04:13N 36°46' E 031°23'0 0.0
2017-Sep-12 03:58N 36°46' E 031°23'0 0.0
2017-Sep-12 03:28N 36°46' E 031°23'0 0.0
2017-Sep-12 02:55N 36°46' E 031°23'0 0.0
2017-Sep-12 02:28N 36°46' E 031°23'0 0.0
2017-Sep-12 01:58N 36°46' E 031°23'0 0.0
2017-Sep-12 01:28N 36°46' E 031°23'0 0.0
2017-Sep-11 23:16N 36°46' E 031°23'0 0.0
2017-Sep-11 22:58N 36°46' E 031°23'0 0.0
2017-Sep-11 19:16N 36°46' E 031°23'0 0.0
2017-Sep-11 18:55N 36°46' E 031°23'0 0.0
2017-Sep-11 15:58N 36°46' E 031°23'0 0.0
2017-Sep-11 15:25N 36°46' E 031°23'0 0.0
2017-Sep-11 14:49N 36°46' E 031°23'0 0.0
2017-Sep-11 13:34N 36°46' E 031°23'0 0.0
2017-Sep-11 13:25N 36°46' E 031°23'0 0.0
2017-Sep-11 12:58N 36°46' E 031°23'0 0.0
2017-Sep-11 12:28N 36°46' E 031°23'0 0.0
2017-Sep-11 11:55N 36°46' E 031°23'0 0.0
2017-Sep-11 11:28N 36°46' E 031°23'0 0.0
2017-Sep-11 10:58N 36°46' E 031°23'0 0.0
2017-Sep-11 10:25N 36°46' E 031°23'0 0.0
2017-Sep-11 09:58N 36°46' E 031°23'0 0.0
2017-Sep-11 09:22N 36°46' E 031°23'0 0.0
2017-Sep-11 08:58N 36°46' E 031°23'0 0.0
2017-Sep-11 08:28N 36°46' E 031°23'0 0.0
2017-Sep-11 07:55N 36°46' E 031°23'0 0.0
2017-Sep-11 07:28N 36°46' E 031°23'0 0.0
2017-Sep-11 06:58N 36°46' E 031°23'0 0.0
2017-Sep-11 06:28N 36°46' E 031°23'0 0.0
2017-Sep-11 05:58N 36°46' E 031°23'0 0.0
2017-Sep-11 05:25N 36°46' E 031°23'0 0.0
2017-Sep-11 04:58N 36°46' E 031°23'0 0.0
2017-Sep-11 04:22N 36°46' E 031°23'0 0.0
2017-Sep-11 03:52N 36°46' E 031°23'0 0.0
2017-Sep-11 03:28N 36°46' E 031°23'0 0.0
2017-Sep-11 01:28N 36°46' E 031°23'0 0.0
2017-Sep-11 00:58N 36°46' E 031°23'0 0.0
2017-Sep-11 00:28N 36°46' E 031°23'0 0.0
2017-Sep-10 23:58N 36°46' E 031°23'0 0.0
2017-Sep-10 23:28N 36°46' E 031°23'0 0.0
2017-Sep-10 22:40N 36°46' E 031°23'0 0.0
2017-Sep-10 22:28N 36°46' E 031°23'0 0.0
2017-Sep-10 21:58N 36°46' E 031°23'0 0.0
2017-Sep-10 21:28N 36°46' E 031°23'0 0.0
2017-Sep-10 20:58N 36°46' E 031°23'0 0.0
2017-Sep-10 20:28N 36°46' E 031°23'0 0.0
2017-Sep-10 19:58N 36°46' E 031°23'0 0.0
2017-Sep-10 19:28N 36°46' E 031°23'0 0.0
2017-Sep-10 17:49N 36°46' E 031°23'0 0.0
2017-Sep-10 17:28N 36°46' E 031°23'0 0.0
2017-Sep-10 16:58N 36°46' E 031°23'0 0.0
2017-Sep-10 16:28N 36°46' E 031°23'0 0.0
2017-Sep-10 15:58N 36°46' E 031°23'0 0.0
2017-Sep-10 15:28N 36°46' E 031°23'0 0.0
2017-Sep-10 14:52N 36°46' E 031°23'0 0.0
2017-Sep-10 13:50N 36°46' E 031°23'1 2.1
2017-Sep-10 13:26N 36°47' E 031°23'1 0.8
2017-Sep-10 12:34N 36°46' E 031°23'0 0.0
2017-Sep-10 12:28N 36°46' E 031°23'2 4.2
2017-Sep-10 12:00N 36°44' E 031°24'3 5.6
2017-Sep-10 11:30N 36°44' E 031°28'1 0.8
2017-Sep-10 09:37N 36°44' E 031°29'0 0.0
2017-Sep-10 09:25N 36°44' E 031°29'1 3.1
2017-Sep-10 09:00N 36°45' E 031°28'4 0.4
2017-Sep-09 22:18N 36°46' E 031°23'0 0.0
2017-Sep-09 21:57N 36°46' E 031°23'0 0.0
2017-Sep-09 21:30N 36°46' E 031°23'0 0.0
2017-Sep-09 21:00N 36°46' E 031°23'0 0.0
2017-Sep-09 19:54N 36°46' E 031°23'0 0.0
2017-Sep-09 18:47N 36°46' E 031°23'0 0.0
2017-Sep-09 18:29N 36°46' E 031°23'0 0.0
2017-Sep-09 17:56N 36°46' E 031°23'0 0.0
2017-Sep-09 17:20N 36°46' E 031°23'0 0.0
2017-Sep-09 16:59N 36°46' E 031°23'0 0.0
2017-Sep-09 16:29N 36°46' E 031°23'0 0.0
2017-Sep-09 13:50N 36°46' E 031°23'0 0.0
2017-Sep-09 13:20N 36°46' E 031°23'0 0.0
2017-Sep-09 12:44N 36°46' E 031°23'0 0.0
2017-Sep-09 12:26N 36°46' E 031°23'0 0.0
2017-Sep-09 11:56N 36°46' E 031°23'0 0.0
2017-Sep-09 11:26N 36°46' E 031°23'0 0.0
2017-Sep-09 10:56N 36°46' E 031°23'0 0.0
2017-Sep-09 10:26N 36°46' E 031°23'0 0.0
2017-Sep-09 09:59N 36°46' E 031°23'0 0.0
2017-Sep-09 09:26N 36°46' E 031°23'0 0.0
2017-Sep-09 08:56N 36°46' E 031°23'0 0.0
2017-Sep-08 14:50N 36°46' E 031°23'0 0.0
2017-Sep-08 14:29N 36°46' E 031°23'0 0.0
2017-Sep-08 13:59N 36°46' E 031°23'0 0.0
2017-Sep-08 13:26N 36°46' E 031°23'0 0.0
2017-Sep-08 12:50N 36°46' E 031°23'0 0.0
2017-Sep-08 12:29N 36°46' E 031°23'0 0.0
2017-Sep-08 11:56N 36°46' E 031°23'0 0.0
2017-Sep-08 11:26N 36°46' E 031°23'0 0.0
2017-Sep-08 10:59N 36°46' E 031°23'0 0.0
2017-Sep-08 10:20N 36°46' E 031°23'0 0.0
2017-Sep-08 09:50N 36°46' E 031°23'  
2017-Sep-05 11:51N 36°46' E 031°23'0 0.0
2017-Sep-05 11:21N 36°46' E 031°23'0 0.0
2017-Sep-05 10:57N 36°46' E 031°23'0 0.0
2017-Sep-05 03:33N 36°46' E 031°23'0 0.0
2017-Sep-05 03:18N 36°46' E 031°23'0 0.0
2017-Sep-05 02:51N 36°46' E 031°23'0 0.0
2017-Sep-05 02:30N 36°46' E 031°23'0 0.0
2017-Sep-05 01:57N 36°46' E 031°23'0 0.0
2017-Sep-05 01:27N 36°46' E 031°23'0 0.0
2017-Sep-05 00:54N 36°46' E 031°23'0 0.0
2017-Sep-04 23:45N 36°46' E 031°23'0 0.0
2017-Sep-04 23:27N 36°46' E 031°23'0 0.0
2017-Sep-04 22:03N 36°46' E 031°23'0 0.0
2017-Sep-04 22:00N 36°46' E 031°23'0 0.0
2017-Sep-04 21:27N 36°46' E 031°23'0 0.0
2017-Sep-04 20:42N 36°46' E 031°23'0 0.0
2017-Sep-04 20:12N 36°46' E 031°23'0 0.0
2017-Sep-04 18:06N 36°46' E 031°23'0 0.0
2017-Sep-04 18:00N 36°46' E 031°23'0 0.0
2017-Sep-04 17:27N 36°46' E 031°23'0 0.0
2017-Sep-04 16:54N 36°46' E 031°23'0 0.0
2017-Sep-04 16:30N 36°46' E 031°23'0 0.0
2017-Sep-04 15:12N 36°46' E 031°23'0 0.0
2017-Sep-04 15:00N 36°46' E 031°23'0 0.0
2017-Sep-04 14:27N 36°46' E 031°23'0 0.0
2017-Sep-04 13:57N 36°46' E 031°23'0 0.0
2017-Sep-04 13:30N 36°46' E 031°23'0 0.0
2017-Sep-04 13:00N 36°46' E 031°23'0 0.0
2017-Sep-04 12:30N 36°46' E 031°23'0 0.0
2017-Sep-04 11:57N 36°46' E 031°23'0 0.0
2017-Sep-04 11:30N 36°46' E 031°23'0 0.0
2017-Sep-04 11:00N 36°46' E 031°23'0 0.0
2017-Sep-04 10:31N 36°46' E 031°23'0 0.0
2017-Sep-04 09:57N 36°46' E 031°23'0 0.0
2017-Sep-04 08:34N 36°46' E 031°23'0 0.0
2017-Sep-04 08:28N 36°46' E 031°23'  

Dump ship's entire track history